createdAt,value
2019-02-06T00:00:12.756Z,69.70
2019-02-06T00:01:12.744Z,69.60
2019-02-06T00:02:12.737Z,69.56
2019-02-06T00:03:12.739Z,69.70
2019-02-06T00:04:15.412Z,69.60
2019-02-06T00:05:14.381Z,69.90
2019-02-06T00:06:12.703Z,69.87
2019-02-06T00:07:12.673Z,69.49
2019-02-06T00:08:12.682Z,69.46
2019-02-06T00:09:12.650Z,69.39
2019-02-06T00:10:12.640Z,69.46
2019-02-06T00:11:12.634Z,69.60
2019-02-06T00:12:12.628Z,69.70
2019-02-06T00:13:12.630Z,69.70
2019-02-06T00:14:12.632Z,69.25
2019-02-06T00:15:12.634Z,69.90
2019-02-06T00:16:12.571Z,69.67
2019-02-06T00:17:12.575Z,69.56
2019-02-06T00:18:12.568Z,69.60
2019-02-06T00:19:12.545Z,69.60
2019-02-06T00:20:12.527Z,69.56
2019-02-06T00:21:12.566Z,69.70
2019-02-06T00:22:12.505Z,69.80
2019-02-06T00:23:12.520Z,69.39
2019-02-06T00:24:12.482Z,69.25
2019-02-06T00:25:12.476Z,69.77
2019-02-06T00:26:12.472Z,69.77
2019-02-06T00:27:12.450Z,69.90
2019-02-06T00:28:12.447Z,69.90
2019-02-06T00:29:12.461Z,69.67
2019-02-06T00:30:12.427Z,69.77
2019-02-06T00:31:12.417Z,69.56
2019-02-06T00:32:12.398Z,69.98
2019-02-06T00:33:12.385Z,69.18
2019-02-06T00:34:12.389Z,69.35
2019-02-06T00:35:12.362Z,69.67
2019-02-06T00:36:12.352Z,69.56
2019-02-06T00:37:12.345Z,69.56
2019-02-06T00:38:12.330Z,69.46
2019-02-06T00:39:12.335Z,69.25
2019-02-06T00:40:12.306Z,69.39
2019-02-06T00:41:12.301Z,69.67
2019-02-06T00:42:12.297Z,69.67
2019-02-06T00:43:12.355Z,69.25
2019-02-06T00:44:12.281Z,69.60
2019-02-06T00:45:12.250Z,69.15
2019-02-06T00:46:12.242Z,68.63
2019-02-06T00:47:12.251Z,68.84
2019-02-06T00:48:12.218Z,69.25
2019-02-06T00:49:12.254Z,68.84
2019-02-06T00:50:12.199Z,68.63
2019-02-06T00:51:13.301Z,68.87
2019-02-06T00:52:12.205Z,69.80
2019-02-06T00:53:12.162Z,69.29
2019-02-06T00:54:12.225Z,69.39
2019-02-06T00:55:12.155Z,68.63
2019-02-06T00:56:12.128Z,68.46
2019-02-06T00:57:12.112Z,69.60
2019-02-06T00:58:12.120Z,69.46
2019-02-06T00:59:12.103Z,68.74
2019-02-06T01:00:12.113Z,68.77
2019-02-06T01:01:12.126Z,68.56
2019-02-06T01:02:12.086Z,68.66
2019-02-06T01:03:12.067Z,68.63
2019-02-06T01:04:12.032Z,68.15
2019-02-06T01:05:12.044Z,68.04
2019-02-06T01:06:12.019Z,67.91
2019-02-06T01:07:12.008Z,68.04
2019-02-06T01:08:12.029Z,68.15
2019-02-06T01:09:11.986Z,68.01
2019-02-06T01:10:11.987Z,68.25
2019-02-06T01:11:11.962Z,68.01
2019-02-06T01:12:11.956Z,67.94
2019-02-06T01:13:11.943Z,67.83
2019-02-06T01:14:11.928Z,68.25
2019-02-06T01:15:11.942Z,68.25
2019-02-06T01:16:11.909Z,68.35
2019-02-06T01:17:11.897Z,67.63
2019-02-06T01:18:11.882Z,67.73
2019-02-06T01:19:11.875Z,68.01
2019-02-06T01:20:11.884Z,68.25
2019-02-06T01:21:11.963Z,68.25
2019-02-06T01:22:11.850Z,67.94
2019-02-06T01:23:11.831Z,68.25
2019-02-06T01:24:11.812Z,68.35
2019-02-06T01:25:11.899Z,68.35
2019-02-06T01:26:11.790Z,68.22
2019-02-06T01:27:11.789Z,68.15
2019-02-06T01:28:11.769Z,68.15
2019-02-06T01:29:11.758Z,67.94
2019-02-06T01:30:11.767Z,68.35
2019-02-06T01:31:11.811Z,67.73
2019-02-06T01:32:11.724Z,68.04
2019-02-06T01:33:11.726Z,68.25
2019-02-06T01:34:11.704Z,68.15
2019-02-06T01:35:11.722Z,68.25
2019-02-06T01:36:11.797Z,67.83
2019-02-06T01:37:11.663Z,67.83
2019-02-06T01:38:11.651Z,67.94
2019-02-06T01:39:11.648Z,68.25
2019-02-06T01:40:11.666Z,67.73
2019-02-06T01:41:11.624Z,67.63
2019-02-06T01:42:11.615Z,67.83
2019-02-06T01:43:11.598Z,67.73
2019-02-06T01:44:11.602Z,67.73
2019-02-06T01:45:11.602Z,67.42
2019-02-06T01:46:11.564Z,67.94
2019-02-06T01:47:11.559Z,67.83
2019-02-06T01:48:11.554Z,67.73
2019-02-06T01:49:11.537Z,67.42
2019-02-06T01:50:11.554Z,67.52
2019-02-06T01:51:11.544Z,67.52
2019-02-06T01:52:11.503Z,67.32
2019-02-06T01:53:11.493Z,67.63
2019-02-06T01:54:11.480Z,67.18
2019-02-06T01:55:11.473Z,67.42
2019-02-06T01:56:11.475Z,67.11
2019-02-06T01:57:11.444Z,67.00
2019-02-06T01:58:11.430Z,67.21
2019-02-06T01:59:11.446Z,67.11
2019-02-06T02:00:11.409Z,67.11
2019-02-06T02:01:11.416Z,67.00
2019-02-06T02:02:11.387Z,67.11
2019-02-06T02:03:11.375Z,67.11
2019-02-06T02:04:11.361Z,67.11
2019-02-06T02:05:11.367Z,67.32
2019-02-06T02:06:11.367Z,66.59
2019-02-06T02:07:11.330Z,66.90
2019-02-06T02:08:11.321Z,67.11
2019-02-06T02:09:11.316Z,67.42
2019-02-06T02:10:11.298Z,67.52
2019-02-06T02:11:11.306Z,67.42
2019-02-06T02:12:11.275Z,67.32
2019-02-06T02:13:11.268Z,66.93
2019-02-06T02:14:11.256Z,66.11
2019-02-06T02:15:11.244Z,67.11
2019-02-06T02:16:11.253Z,67.45
2019-02-06T02:17:11.223Z,67.42
2019-02-06T02:18:11.215Z,67.14
2019-02-06T02:19:11.225Z,67.14
2019-02-06T02:20:11.188Z,67.24
2019-02-06T02:21:11.445Z,66.90
2019-02-06T02:22:11.189Z,66.90
2019-02-06T02:23:11.154Z,66.31
2019-02-06T02:24:11.147Z,66.83
2019-02-06T02:25:11.135Z,66.72
2019-02-06T02:26:11.119Z,66.11
2019-02-06T02:27:11.127Z,66.83
2019-02-06T02:28:11.096Z,67.24
2019-02-06T02:29:11.093Z,66.93
2019-02-06T02:30:11.075Z,66.72
2019-02-06T02:31:11.063Z,66.59
2019-02-06T02:32:11.069Z,66.69
2019-02-06T02:33:11.047Z,66.62
2019-02-06T02:34:11.031Z,66.59
2019-02-06T02:35:11.019Z,67.00
2019-02-06T02:36:16.115Z,67.35
2019-02-06T02:37:12.017Z,66.62
2019-02-06T02:38:10.997Z,67.32
2019-02-06T02:39:10.982Z,66.62
2019-02-06T02:40:10.965Z,66.41
2019-02-06T02:41:10.954Z,66.62
2019-02-06T02:42:10.961Z,67.55
2019-02-06T02:43:10.941Z,66.80
2019-02-06T02:44:10.933Z,66.21
2019-02-06T02:45:10.909Z,66.93
2019-02-06T02:46:10.905Z,66.31
2019-02-06T02:47:10.905Z,66.62
2019-02-06T02:48:10.879Z,66.93
2019-02-06T02:49:10.869Z,66.72
2019-02-06T02:50:10.863Z,66.80
2019-02-06T02:51:11.033Z,67.14
2019-02-06T02:52:10.857Z,67.00
2019-02-06T02:53:10.833Z,66.21
2019-02-06T02:54:10.821Z,66.31
2019-02-06T02:55:10.808Z,66.38
2019-02-06T02:56:10.790Z,66.28
2019-02-06T02:57:10.803Z,66.31
2019-02-06T02:58:10.767Z,66.18
2019-02-06T02:59:10.757Z,66.38
2019-02-06T03:00:10.738Z,66.41
2019-02-06T03:01:10.738Z,66.38
2019-02-06T03:02:10.738Z,66.41
2019-02-06T03:03:10.715Z,66.18
2019-02-06T03:04:10.703Z,66.38
2019-02-06T03:05:10.687Z,65.80
2019-02-06T03:06:10.679Z,65.25
2019-02-06T03:07:10.685Z,65.25
2019-02-06T03:08:10.665Z,65.45
2019-02-06T03:09:10.644Z,65.38
2019-02-06T03:10:10.644Z,64.62
2019-02-06T03:11:10.627Z,64.73
2019-02-06T03:12:10.634Z,64.31
2019-02-06T03:13:10.598Z,64.65
2019-02-06T03:14:10.584Z,64.11
2019-02-06T03:15:10.612Z,64.34
2019-02-06T03:16:10.584Z,64.34
2019-02-06T03:17:10.570Z,64.31
2019-02-06T03:18:10.550Z,64.73
2019-02-06T03:19:10.529Z,64.24
2019-02-06T03:20:10.534Z,64.65
2019-02-06T03:21:10.511Z,64.21
2019-02-06T03:22:10.533Z,63.90
2019-02-06T03:23:10.489Z,63.90
2019-02-06T03:24:10.482Z,63.79
2019-02-06T03:25:10.464Z,63.79
2019-02-06T03:26:10.456Z,63.69
2019-02-06T03:27:10.469Z,63.59
2019-02-06T03:28:10.431Z,63.38
2019-02-06T03:29:10.429Z,63.48
2019-02-06T03:30:10.442Z,63.48
2019-02-06T03:31:10.405Z,63.31
2019-02-06T03:32:10.387Z,63.07
2019-02-06T03:33:10.406Z,63.38
2019-02-06T03:34:10.366Z,62.87
2019-02-06T03:35:10.350Z,62.66
2019-02-06T03:36:10.341Z,62.66
2019-02-06T03:37:10.342Z,63.28
2019-02-06T03:38:10.337Z,62.97
2019-02-06T03:39:10.314Z,62.97
2019-02-06T03:40:10.308Z,63.48
2019-02-06T03:41:10.283Z,63.59
2019-02-06T03:42:10.276Z,63.48
2019-02-06T03:43:10.331Z,63.38
2019-02-06T03:44:10.259Z,63.07
2019-02-06T03:45:10.246Z,62.66
2019-02-06T03:46:10.246Z,62.97
2019-02-06T03:47:10.234Z,62.55
2019-02-06T03:48:10.249Z,62.66
2019-02-06T03:49:10.202Z,62.87
2019-02-06T03:50:10.188Z,62.87
2019-02-06T03:51:10.175Z,62.94
2019-02-06T03:52:10.170Z,63.28
2019-02-06T03:53:10.154Z,63.07
2019-02-06T03:54:10.165Z,62.87
2019-02-06T03:55:10.137Z,63.35
2019-02-06T03:56:10.122Z,63.07
2019-02-06T03:57:10.112Z,63.07
2019-02-06T03:58:10.101Z,63.48
2019-02-06T03:59:10.110Z,63.48
2019-02-06T04:00:10.095Z,63.38
2019-02-06T04:01:11.467Z,63.38
2019-02-06T04:02:10.062Z,63.38
2019-02-06T04:03:10.046Z,63.59
2019-02-06T04:04:10.046Z,63.59
2019-02-06T04:05:10.019Z,63.38
2019-02-06T04:06:10.004Z,63.79
2019-02-06T04:07:09.998Z,64.31
2019-02-06T04:08:09.988Z,64.00
2019-02-06T04:09:10.019Z,64.21
2019-02-06T04:10:09.972Z,63.90
2019-02-06T04:11:09.960Z,63.90
2019-02-06T04:12:09.955Z,64.00
2019-02-06T04:13:09.939Z,63.90
2019-02-06T04:14:09.943Z,63.97
2019-02-06T04:15:09.919Z,64.31
2019-02-06T04:16:09.929Z,63.90
2019-02-06T04:17:09.918Z,63.87
2019-02-06T04:18:09.875Z,63.90
2019-02-06T04:19:09.884Z,63.87
2019-02-06T04:20:09.868Z,64.62
2019-02-06T04:21:09.846Z,64.21
2019-02-06T04:22:09.857Z,64.18
2019-02-06T04:23:09.821Z,63.97
2019-02-06T04:24:09.852Z,64.52
2019-02-06T04:25:09.803Z,64.21
2019-02-06T04:26:09.784Z,64.31
2019-02-06T04:27:09.770Z,64.62
2019-02-06T04:28:09.772Z,65.01
2019-02-06T04:29:09.756Z,64.18
2019-02-06T04:30:09.775Z,65.11
2019-02-06T04:31:09.757Z,65.14
2019-02-06T04:32:09.733Z,64.73
2019-02-06T04:33:09.710Z,64.52
2019-02-06T04:34:09.700Z,64.31
2019-02-06T04:35:09.710Z,64.52
2019-02-06T04:36:09.687Z,64.83
2019-02-06T04:37:09.673Z,64.83
2019-02-06T04:38:09.658Z,65.14
2019-02-06T04:39:09.639Z,65.25
2019-02-06T04:40:09.661Z,65.25
2019-02-06T04:41:09.625Z,65.25
2019-02-06T04:42:09.608Z,65.97
2019-02-06T04:43:09.607Z,65.87
2019-02-06T04:44:09.590Z,66.08
2019-02-06T04:45:09.578Z,66.21
2019-02-06T04:46:09.596Z,66.72
2019-02-06T04:47:09.585Z,66.62
2019-02-06T04:48:09.551Z,67.24
2019-02-06T04:49:09.536Z,67.66
2019-02-06T04:50:09.535Z,67.76
2019-02-06T04:51:09.558Z,67.76
2019-02-06T04:52:09.498Z,67.97
2019-02-06T04:53:09.493Z,68.41
2019-02-06T04:54:09.475Z,68.07
2019-02-06T04:55:09.471Z,69.87
2019-02-06T04:56:09.472Z,69.63
2019-02-06T04:57:09.630Z,70.07
2019-02-06T04:58:09.528Z,69.56
2019-02-06T04:59:09.424Z,70.18
2019-02-06T05:00:09.413Z,70.90
2019-02-06T05:01:09.435Z,70.90
2019-02-06T05:02:09.395Z,70.90
2019-02-06T05:03:09.379Z,71.11
2019-02-06T05:04:09.367Z,71.01
2019-02-06T05:05:09.357Z,71.66
2019-02-06T05:06:09.345Z,71.45
2019-02-06T05:07:18.703Z,71.87
2019-02-06T05:08:10.319Z,72.08
2019-02-06T05:09:09.353Z,72.49
2019-02-06T05:10:09.304Z,72.49
2019-02-06T05:11:09.289Z,72.70
2019-02-06T05:12:09.728Z,72.94
2019-02-06T05:13:09.263Z,73.15
2019-02-06T05:14:09.253Z,73.25
2019-02-06T05:15:09.246Z,73.67
2019-02-06T05:16:09.234Z,73.57
2019-02-06T05:17:09.245Z,73.67
2019-02-06T05:18:09.234Z,73.88
2019-02-06T05:19:09.201Z,73.67
2019-02-06T05:20:09.189Z,73.77
2019-02-06T05:21:09.175Z,73.67
2019-02-06T05:22:09.167Z,73.88
2019-02-06T05:23:09.175Z,73.98
2019-02-06T05:24:09.150Z,74.19
2019-02-06T05:25:09.129Z,73.98
2019-02-06T05:26:09.137Z,74.40
2019-02-06T05:27:09.128Z,74.19
2019-02-06T05:28:09.119Z,74.50
2019-02-06T05:29:09.081Z,74.50
2019-02-06T05:30:09.079Z,74.50
2019-02-06T05:31:09.077Z,74.71
2019-02-06T05:32:09.054Z,75.23
2019-02-06T05:33:09.058Z,75.33
2019-02-06T05:34:09.027Z,75.12
2019-02-06T05:35:09.022Z,75.43
2019-02-06T05:36:09.006Z,75.54
2019-02-06T05:37:08.995Z,75.95
2019-02-06T05:38:09.017Z,75.95
2019-02-06T05:39:08.978Z,76.06
2019-02-06T05:40:08.965Z,75.43
2019-02-06T05:41:08.946Z,76.47
2019-02-06T05:42:08.944Z,75.43
2019-02-06T05:43:08.935Z,74.95
2019-02-06T05:44:08.931Z,75.26
2019-02-06T05:45:08.906Z,75.12
2019-02-06T05:46:08.899Z,75.26
2019-02-06T05:47:08.885Z,75.26
2019-02-06T05:48:08.869Z,75.36
2019-02-06T05:49:08.876Z,75.36
2019-02-06T05:50:08.846Z,75.15
2019-02-06T05:51:08.834Z,75.36
2019-02-06T05:52:08.827Z,75.36
2019-02-06T05:53:08.822Z,75.36
2019-02-06T05:54:08.844Z,75.36
2019-02-06T05:55:08.792Z,75.46
2019-02-06T05:56:08.784Z,75.36
2019-02-06T05:57:08.771Z,74.84
2019-02-06T05:58:08.758Z,75.36
2019-02-06T05:59:08.777Z,75.71
2019-02-06T06:00:08.739Z,75.98
2019-02-06T06:01:08.731Z,76.23
2019-02-06T06:02:08.739Z,76.33
2019-02-06T06:03:08.702Z,76.54
2019-02-06T06:04:08.702Z,76.85
2019-02-06T06:05:08.693Z,76.57
2019-02-06T06:06:11.753Z,76.47
2019-02-06T06:07:08.655Z,76.43
2019-02-06T06:08:08.666Z,76.57
2019-02-06T06:09:08.639Z,76.89
2019-02-06T06:10:08.651Z,76.89
2019-02-06T06:11:08.801Z,76.95
2019-02-06T06:12:08.592Z,76.85
2019-02-06T06:13:08.607Z,76.99
2019-02-06T06:14:08.583Z,76.85
2019-02-06T06:15:08.582Z,76.95
2019-02-06T06:16:08.564Z,76.99
2019-02-06T06:17:08.566Z,76.95
2019-02-06T06:18:08.529Z,76.75
2019-02-06T06:19:08.521Z,77.26
2019-02-06T06:20:08.548Z,77.16
2019-02-06T06:21:08.489Z,77.20
2019-02-06T06:22:08.487Z,77.26
2019-02-06T06:23:08.518Z,76.99
2019-02-06T06:24:09.169Z,76.89
2019-02-06T06:25:08.449Z,77.40
2019-02-06T06:26:08.454Z,77.30
2019-02-06T06:27:08.430Z,77.47
2019-02-06T06:28:08.429Z,77.61
2019-02-06T06:29:08.413Z,77.89
2019-02-06T06:30:08.408Z,77.92
2019-02-06T06:31:08.398Z,78.03
2019-02-06T06:32:08.366Z,78.03
2019-02-06T06:33:08.360Z,78.23
2019-02-06T06:34:08.354Z,78.34
2019-02-06T06:35:08.342Z,78.86
2019-02-06T06:36:08.354Z,78.75
2019-02-06T06:37:08.315Z,78.75
2019-02-06T06:38:08.303Z,78.75
2019-02-06T06:39:08.295Z,78.65
2019-02-06T06:40:08.289Z,78.55
2019-02-06T06:41:08.291Z,78.65
2019-02-06T06:42:08.259Z,78.44
2019-02-06T06:43:08.250Z,78.55
2019-02-06T06:44:08.235Z,78.55
2019-02-06T06:45:08.218Z,78.55
2019-02-06T06:46:08.220Z,78.55
2019-02-06T06:47:08.224Z,78.55
2019-02-06T06:48:08.195Z,78.65
2019-02-06T06:49:08.202Z,78.44
2019-02-06T06:50:08.167Z,78.65
2019-02-06T06:51:08.170Z,78.44
2019-02-06T06:52:08.166Z,78.75
2019-02-06T06:53:08.133Z,78.79
2019-02-06T06:54:08.157Z,78.44
2019-02-06T06:55:08.106Z,78.48
2019-02-06T06:56:08.101Z,78.38
2019-02-06T06:57:08.119Z,78.69
2019-02-06T06:58:08.078Z,79.21
2019-02-06T06:59:08.060Z,79.21
2019-02-06T07:00:08.053Z,79.52
2019-02-06T07:01:10.789Z,79.10
2019-02-06T07:02:08.053Z,79.31
2019-02-06T07:03:08.020Z,79.21
2019-02-06T07:04:08.016Z,78.89
2019-02-06T07:05:07.996Z,79.52
2019-02-06T07:06:07.986Z,78.89
2019-02-06T07:07:07.989Z,79.10
2019-02-06T07:08:11.367Z,79.66
2019-02-06T07:09:08.961Z,79.41
2019-02-06T07:10:08.014Z,79.31
2019-02-06T07:11:07.941Z,79.66
2019-02-06T07:12:07.939Z,79.52
2019-02-06T07:13:07.905Z,79.41
2019-02-06T07:14:07.899Z,79.41
2019-02-06T07:15:07.881Z,79.31
2019-02-06T07:16:07.871Z,79.00
2019-02-06T07:17:07.879Z,79.21
2019-02-06T07:18:07.872Z,79.00
2019-02-06T07:19:07.841Z,79.00
2019-02-06T07:20:07.827Z,79.10
2019-02-06T07:21:07.821Z,79.21
2019-02-06T07:22:07.809Z,78.69
2019-02-06T07:23:07.807Z,78.86
2019-02-06T07:24:07.782Z,78.89
2019-02-06T07:25:07.765Z,78.55
2019-02-06T07:26:07.759Z,78.69
2019-02-06T07:27:07.753Z,78.69
2019-02-06T07:28:07.759Z,78.65
2019-02-06T07:29:07.720Z,78.48
2019-02-06T07:30:07.718Z,78.69
2019-02-06T07:31:07.726Z,78.58
2019-02-06T07:32:07.697Z,78.69
2019-02-06T07:33:07.707Z,78.69
2019-02-06T07:34:07.663Z,78.89
2019-02-06T07:35:07.661Z,78.58
2019-02-06T07:36:07.643Z,78.79
2019-02-06T07:37:07.631Z,78.69
2019-02-06T07:38:07.658Z,78.58
2019-02-06T07:39:07.618Z,78.38
2019-02-06T07:40:07.599Z,78.48
2019-02-06T07:41:07.595Z,78.23
2019-02-06T07:42:07.576Z,78.27
2019-02-06T07:43:07.613Z,78.58
2019-02-06T07:44:07.554Z,78.48
2019-02-06T07:45:07.544Z,78.38
2019-02-06T07:46:07.567Z,78.48
2019-02-06T07:47:07.530Z,78.89
2019-02-06T07:48:07.509Z,78.27
2019-02-06T07:49:07.520Z,78.48
2019-02-06T07:50:07.512Z,78.38
2019-02-06T07:51:08.391Z,78.58
2019-02-06T07:52:07.459Z,78.48
2019-02-06T07:53:07.460Z,78.48
2019-02-06T07:54:07.461Z,78.48
2019-02-06T07:55:07.437Z,78.58
2019-02-06T07:56:07.421Z,78.38
2019-02-06T07:57:07.410Z,78.48
2019-02-06T07:58:07.592Z,78.72
2019-02-06T07:59:07.461Z,78.38
2019-02-06T08:00:07.417Z,78.48
2019-02-06T08:01:07.373Z,78.48
2019-02-06T08:02:07.359Z,78.48
2019-02-06T08:03:07.344Z,78.69
2019-02-06T08:04:07.349Z,78.48
2019-02-06T08:05:07.369Z,78.44
2019-02-06T08:06:07.316Z,78.44
2019-02-06T08:07:07.303Z,78.44
2019-02-06T08:08:07.284Z,78.65
2019-02-06T08:09:07.295Z,77.51
2019-02-06T08:10:07.267Z,77.09
2019-02-06T08:11:07.247Z,77.40
2019-02-06T08:12:07.240Z,77.20
2019-02-06T08:13:07.233Z,76.89
2019-02-06T08:14:07.261Z,76.68
2019-02-06T08:15:07.211Z,76.47
2019-02-06T08:16:07.533Z,76.68
2019-02-06T08:17:07.201Z,76.68
2019-02-06T08:18:07.167Z,76.47
2019-02-06T08:19:07.197Z,76.68
2019-02-06T08:20:07.152Z,76.78
2019-02-06T08:21:07.321Z,76.47
2019-02-06T08:22:07.176Z,76.78
2019-02-06T08:23:07.113Z,76.68
2019-02-06T08:24:07.141Z,76.78
2019-02-06T08:25:07.149Z,76.37
2019-02-06T08:26:07.126Z,76.37
2019-02-06T08:27:07.086Z,76.16
2019-02-06T08:28:07.058Z,76.26
2019-02-06T08:29:07.059Z,76.16
2019-02-06T08:30:07.077Z,76.37
2019-02-06T08:31:07.063Z,76.26
2019-02-06T08:32:07.056Z,76.26
2019-02-06T08:33:07.063Z,76.26
2019-02-06T08:34:07.007Z,76.16
2019-02-06T08:35:07.066Z,76.06
2019-02-06T08:36:06.990Z,76.43
2019-02-06T08:37:06.957Z,76.26
2019-02-06T08:38:06.951Z,75.95
2019-02-06T08:39:06.935Z,76.12
2019-02-06T08:40:06.947Z,75.81
2019-02-06T08:41:06.915Z,75.71
2019-02-06T08:42:06.906Z,74.98
2019-02-06T08:43:06.886Z,75.85
2019-02-06T08:44:06.933Z,75.54
2019-02-06T08:45:06.886Z,75.09
2019-02-06T08:46:06.862Z,75.74
2019-02-06T08:47:06.862Z,74.80
2019-02-06T08:48:06.827Z,75.12
2019-02-06T08:49:06.832Z,75.19
2019-02-06T08:50:07.018Z,75.40
2019-02-06T08:51:06.804Z,75.60
2019-02-06T08:52:06.812Z,75.09
2019-02-06T08:53:06.782Z,75.40
2019-02-06T08:54:06.764Z,74.57
2019-02-06T08:55:06.810Z,74.98
2019-02-06T08:56:06.741Z,74.57
2019-02-06T08:57:06.738Z,74.67
2019-02-06T08:58:06.720Z,74.98
2019-02-06T08:59:06.705Z,76.43
2019-02-06T09:00:06.710Z,74.95
2019-02-06T09:01:06.697Z,74.36
2019-02-06T09:02:06.680Z,74.22
2019-02-06T09:03:06.658Z,74.32
2019-02-06T09:04:06.661Z,73.60
2019-02-06T09:05:07.684Z,73.80
2019-02-06T09:06:06.674Z,73.60
2019-02-06T09:07:06.624Z,73.70
2019-02-06T09:08:06.612Z,73.28
2019-02-06T09:09:06.592Z,73.60
2019-02-06T09:10:06.594Z,73.49
2019-02-06T09:11:06.608Z,73.08
2019-02-06T09:12:06.562Z,73.49
2019-02-06T09:13:06.545Z,73.60
2019-02-06T09:14:06.555Z,73.08
2019-02-06T09:15:06.527Z,72.97
2019-02-06T09:16:06.567Z,72.63
2019-02-06T09:17:06.501Z,72.74
2019-02-06T09:18:06.496Z,72.53
2019-02-06T09:19:06.488Z,72.63
2019-02-06T09:20:06.474Z,72.53
2019-02-06T09:21:06.499Z,72.63
2019-02-06T09:22:06.453Z,72.42
2019-02-06T09:23:06.445Z,72.42
2019-02-06T09:24:06.422Z,72.28
2019-02-06T09:25:06.430Z,72.18
2019-02-06T09:26:06.438Z,71.66
2019-02-06T09:27:06.398Z,71.66
2019-02-06T09:28:06.382Z,71.66
2019-02-06T09:29:06.369Z,71.77
2019-02-06T09:30:06.355Z,71.22
2019-02-06T09:31:06.362Z,71.11
2019-02-06T09:32:06.338Z,71.11
2019-02-06T09:33:06.318Z,70.90
2019-02-06T09:34:06.319Z,70.90
2019-02-06T09:35:06.309Z,70.28
2019-02-06T09:36:06.312Z,70.18
2019-02-06T09:37:06.275Z,69.53
2019-02-06T09:38:06.338Z,69.42
2019-02-06T09:39:11.812Z,69.63
2019-02-06T09:40:07.240Z,69.42
2019-02-06T09:41:06.263Z,69.63
2019-02-06T09:42:06.243Z,69.73
2019-02-06T09:43:06.206Z,69.42
2019-02-06T09:44:06.207Z,69.73
2019-02-06T09:45:06.191Z,69.42
2019-02-06T09:46:06.180Z,69.63
2019-02-06T09:47:06.185Z,69.63
2019-02-06T09:48:06.160Z,69.84
2019-02-06T09:49:06.145Z,69.49
2019-02-06T09:50:06.129Z,69.63
2019-02-06T09:51:06.297Z,68.77
2019-02-06T09:52:06.136Z,68.46
2019-02-06T09:53:06.099Z,68.46
2019-02-06T09:54:06.099Z,68.01
2019-02-06T09:55:06.073Z,68.22
2019-02-06T09:56:06.070Z,67.77
2019-02-06T09:57:06.089Z,67.49
2019-02-06T09:58:06.041Z,67.29
2019-02-06T09:59:06.042Z,67.49
2019-02-06T10:00:06.028Z,67.39
2019-02-06T10:01:06.018Z,67.05
2019-02-06T10:02:06.016Z,66.22
2019-02-06T10:03:05.991Z,66.53
2019-02-06T10:04:05.981Z,67.12
2019-02-06T10:05:05.974Z,66.71
2019-02-06T10:06:05.962Z,66.19
2019-02-06T10:07:05.963Z,66.39
2019-02-06T10:08:05.937Z,66.29
2019-02-06T10:09:05.920Z,65.54
2019-02-06T10:10:05.927Z,65.88
2019-02-06T10:11:05.897Z,65.85
2019-02-06T10:12:05.925Z,66.06
2019-02-06T10:13:05.877Z,65.75
2019-02-06T10:14:05.866Z,65.23
2019-02-06T10:15:05.869Z,65.51
2019-02-06T10:16:05.870Z,65.09
2019-02-06T10:17:05.862Z,65.30
2019-02-06T10:18:05.823Z,64.99
2019-02-06T10:19:05.809Z,64.58
2019-02-06T10:20:05.801Z,64.45
2019-02-06T10:21:05.788Z,64.48
2019-02-06T10:22:05.797Z,64.24
2019-02-06T10:23:05.780Z,64.03
2019-02-06T10:24:05.753Z,64.14
2019-02-06T10:25:05.750Z,64.24
2019-02-06T10:26:05.759Z,63.93
2019-02-06T10:27:05.781Z,63.72
2019-02-06T10:28:05.806Z,64.03
2019-02-06T10:29:05.697Z,63.93
2019-02-06T10:30:05.687Z,63.82
2019-02-06T10:31:05.679Z,63.72
2019-02-06T10:32:05.704Z,63.82
2019-02-06T10:33:05.658Z,63.69
2019-02-06T10:34:05.640Z,63.59
2019-02-06T10:35:05.648Z,63.21
2019-02-06T10:36:05.625Z,63.62
2019-02-06T10:37:05.649Z,63.93
2019-02-06T10:38:05.604Z,63.42
2019-02-06T10:39:05.576Z,63.42
2019-02-06T10:40:05.586Z,63.51
2019-02-06T10:41:05.562Z,63.42
2019-02-06T10:42:05.570Z,63.62
2019-02-06T10:43:05.542Z,64.27
2019-02-06T10:44:05.526Z,63.85
2019-02-06T10:45:05.517Z,64.30
2019-02-06T10:46:05.496Z,64.61
2019-02-06T10:47:05.510Z,64.61
2019-02-06T10:48:05.498Z,64.71
2019-02-06T10:49:05.472Z,64.61
2019-02-06T10:50:05.458Z,64.58
2019-02-06T10:51:05.448Z,64.24
2019-02-06T10:52:05.451Z,63.62
2019-02-06T10:53:05.424Z,63.69
2019-02-06T10:54:05.408Z,63.39
2019-02-06T10:55:05.400Z,62.76
2019-02-06T10:56:05.386Z,62.66
2019-02-06T10:57:05.426Z,63.04
2019-02-06T10:58:05.372Z,62.53
2019-02-06T10:59:05.349Z,62.43
2019-02-06T11:00:05.340Z,62.08
2019-02-06T11:01:05.326Z,61.16
2019-02-06T11:02:05.318Z,61.05
2019-02-06T11:03:05.320Z,60.61
2019-02-06T11:04:05.326Z,60.72
2019-02-06T11:05:05.281Z,60.72
2019-02-06T11:06:05.268Z,60.02
2019-02-06T11:07:08.136Z,60.02
2019-02-06T11:08:05.278Z,60.54
2019-02-06T11:09:05.254Z,60.51
2019-02-06T11:10:05.248Z,59.89
2019-02-06T11:11:05.217Z,59.79
2019-02-06T11:12:05.204Z,59.89
2019-02-06T11:13:05.210Z,59.77
2019-02-06T11:14:05.184Z,58.84
2019-02-06T11:15:05.182Z,58.84
2019-02-06T11:16:05.163Z,59.33
2019-02-06T11:17:05.144Z,58.63
2019-02-06T11:18:05.158Z,58.73
2019-02-06T11:19:05.218Z,58.42
2019-02-06T11:20:05.115Z,58.94
2019-02-06T11:21:05.106Z,58.22
2019-02-06T11:22:05.166Z,58.22
2019-02-06T11:23:05.090Z,58.94
2019-02-06T11:24:05.063Z,58.22
2019-02-06T11:25:05.050Z,57.91
2019-02-06T11:26:05.057Z,58.22
2019-02-06T11:27:05.041Z,58.32
2019-02-06T11:28:05.064Z,57.81
2019-02-06T11:29:05.018Z,58.22
2019-02-06T11:30:05.015Z,57.81
2019-02-06T11:31:05.034Z,57.88
2019-02-06T11:32:04.975Z,57.06
2019-02-06T11:33:04.985Z,57.16
2019-02-06T11:34:04.954Z,58.29
2019-02-06T11:35:04.943Z,57.06
2019-02-06T11:36:04.927Z,56.95
2019-02-06T11:37:04.920Z,57.29
2019-02-06T11:38:04.930Z,56.85
2019-02-06T11:39:04.914Z,57.16
2019-02-06T11:40:04.892Z,56.95
2019-02-06T11:41:04.866Z,56.98
2019-02-06T11:42:04.860Z,57.60
2019-02-06T11:43:04.875Z,57.39
2019-02-06T11:44:04.848Z,57.37
2019-02-06T11:45:04.825Z,56.95
2019-02-06T11:46:04.827Z,57.06
2019-02-06T11:47:04.803Z,56.75
2019-02-06T11:48:04.811Z,56.95
2019-02-06T11:49:04.787Z,56.85
2019-02-06T11:50:04.767Z,56.93
2019-02-06T11:51:04.756Z,56.93
2019-02-06T11:52:04.748Z,56.72
2019-02-06T11:53:04.762Z,56.62
2019-02-06T11:54:04.735Z,57.03
2019-02-06T11:55:04.713Z,56.52
2019-02-06T11:56:04.703Z,56.52
2019-02-06T11:57:04.687Z,56.31
2019-02-06T11:58:04.679Z,57.03
2019-02-06T11:59:04.701Z,56.21
2019-02-06T12:00:04.667Z,56.38
2019-02-06T12:01:04.653Z,56.38
2019-02-06T12:02:04.697Z,55.98
2019-02-06T12:03:04.632Z,55.98
2019-02-06T12:04:04.627Z,56.08
2019-02-06T12:05:04.605Z,56.70
2019-02-06T12:06:04.600Z,56.29
2019-02-06T12:07:04.595Z,56.52
2019-02-06T12:08:04.568Z,57.14
2019-02-06T12:09:04.578Z,56.52
2019-02-06T12:10:09.945Z,56.72
2019-02-06T12:11:05.555Z,56.93
2019-02-06T12:12:04.520Z,56.82
2019-02-06T12:13:04.509Z,56.72
2019-02-06T12:14:04.528Z,56.72
2019-02-06T12:15:04.484Z,57.03
2019-02-06T12:16:04.475Z,56.82
2019-02-06T12:17:04.515Z,56.82
2019-02-06T12:18:04.474Z,56.62
2019-02-06T12:19:04.477Z,56.52
2019-02-06T12:20:04.457Z,56.52
2019-02-06T12:21:04.425Z,56.52
2019-02-06T12:22:04.407Z,56.62
2019-02-06T12:23:04.407Z,56.29
2019-02-06T12:24:04.435Z,56.18
2019-02-06T12:25:04.377Z,56.18
2019-02-06T12:26:04.366Z,55.80
2019-02-06T12:27:04.356Z,56.10
2019-02-06T12:28:05.166Z,56.29
2019-02-06T12:29:04.349Z,56.49
2019-02-06T12:30:04.368Z,56.18
2019-02-06T12:31:04.511Z,56.18
2019-02-06T12:32:04.297Z,56.18
2019-02-06T12:33:04.284Z,56.18
2019-02-06T12:34:04.331Z,56.29
2019-02-06T12:35:04.266Z,56.70
2019-02-06T12:36:04.249Z,56.29
2019-02-06T12:37:04.238Z,55.87
2019-02-06T12:38:04.229Z,56.10
2019-02-06T12:39:04.226Z,56.52
2019-02-06T12:40:04.204Z,56.29
2019-02-06T12:41:04.195Z,57.21
2019-02-06T12:42:04.181Z,56.49
2019-02-06T12:43:04.165Z,56.29
2019-02-06T12:44:04.222Z,56.59
2019-02-06T12:45:04.141Z,56.49
2019-02-06T12:46:04.132Z,56.70
2019-02-06T12:47:04.147Z,56.52
2019-02-06T12:48:04.113Z,56.31
2019-02-06T12:49:04.099Z,56.62
2019-02-06T12:50:04.117Z,56.62
2019-02-06T12:51:04.082Z,56.52
2019-02-06T12:52:04.072Z,56.59